Arctic Taglu — CY8968 — position and weather

sailwx.info

Track history (hours):
 
Tides and Currents Weather Stations Pressure Air Temp Water Temp Dewpoint Dewpoint Depression Visibility Wind Speed Wind Dir Waves Ship Positions

Arctic Taglu

Last reported at 2015-May-28 07:33 UTC. Time now 2015-May-28 08:06 UTC.
Position N 49°03' W 123°22'.

Length 33 m; draft 6 m.

Type: Tug. MMSI: 316003483.

Date/timePositionNaut miles runAvg speedWind from/ knotsBaromVisibWave heightAir tempDewpointWater temp
2015-May-28 07:33N 49°03' W 123°22'9 9.3
2015-May-28 06:33N 49°07' W 123°09'5 5.0
2015-May-28 05:33N 49°09' W 123°02'0 0.0
2015-May-28 04:33N 49°09' W 123°02'0 0.0
2015-May-28 03:33N 49°09' W 123°02'0 0.0
2015-May-28 02:33N 49°09' W 123°02'0 0.0
2015-May-28 01:33N 49°09' W 123°02'0 0.0
2015-May-28 00:33N 49°09' W 123°02'0 0.0
2015-May-27 23:33N 49°09' W 123°02'0 0.0
2015-May-27 22:33N 49°09' W 123°02'0 0.0
2015-May-27 21:33N 49°09' W 123°02'0 0.0
2015-May-27 20:33N 49°09' W 123°02'0 0.0
2015-May-27 19:33N 49°09' W 123°02'0 0.0
2015-May-27 18:33N 49°09' W 123°02'0 0.0
2015-May-27 17:33N 49°09' W 123°02'0 0.0
2015-May-27 16:33N 49°09' W 123°02'5 5.2
2015-May-27 15:33N 49°07' W 123°09'6 6.1
2015-May-27 14:33N 49°06' W 123°19'9 8.9
2015-May-27 13:33N 48°57' W 123°19'7 7.3
2015-May-27 12:33N 48°50' W 123°21'9 8.8
2015-May-27 11:33N 48°41' W 123°24'0 0.1
2015-May-27 10:33N 48°41' W 123°24'3 3.1
2015-May-27 09:33N 48°43' W 123°21'9 9.2
2015-May-27 08:33N 48°52' W 123°18'1010.1
2015-May-27 07:33N 49°02' W 123°20'8 7.8
2015-May-27 06:33N 49°07' W 123°10'5 5.3
2015-May-27 05:33N 49°09' W 123°02'0 0.0
2015-May-27 04:33N 49°09' W 123°02'0 0.1
2015-May-27 03:33N 49°09' W 123°02'0 0.0
2015-May-27 02:33N 49°09' W 123°02'0 0.0
2015-May-27 01:33N 49°09' W 123°02'0 0.0
2015-May-27 00:33N 49°09' W 123°02'0 0.0
2015-May-26 23:33N 49°09' W 123°02'0 0.0
2015-May-26 22:33N 49°09' W 123°02'0 0.0
2015-May-26 21:33N 49°09' W 123°02'0 0.0
2015-May-26 20:33N 49°09' W 123°02'0 0.0
2015-May-26 19:33N 49°09' W 123°02'0 0.0
2015-May-26 18:33N 49°09' W 123°02'0 0.0
2015-May-26 17:33N 49°09' W 123°02'0 0.0
2015-May-26 16:33N 49°09' W 123°02'4 4.2
2015-May-26 15:33N 49°07' W 123°08'7 6.6
2015-May-26 14:33N 49°06' W 123°18'8 8.5
2015-May-26 13:33N 48°58' W 123°20'8 7.7
2015-May-26 12:33N 48°50' W 123°21'9 9.2
2015-May-26 11:33N 48°41' W 123°24'0 0.1
2015-May-26 10:33N 48°41' W 123°24'3 3.3
2015-May-26 09:33N 48°44' W 123°21'10 9.6
2015-May-26 08:33N 48°53' W 123°18'1010.1
2015-May-26 07:33N 49°03' W 123°22'9 8.9
2015-May-26 06:33N 49°07' W 123°10'5 5.2
2015-May-26 05:33N 49°09' W 123°02'0 0.0
2015-May-26 04:33N 49°09' W 123°02'1 0.7
2015-May-26 03:33N 49°09' W 123°01'5 5.3
2015-May-26 02:33N 49°12' W 122°54'0 0.0
2015-May-26 01:33N 49°12' W 122°54'0 0.0
2015-May-26 00:33N 49°12' W 122°54'  
2015-May-23 13:32N 49°12' W 122°54'0 0.1
2015-May-23 12:34N 49°12' W 122°54'1 0.6
2015-May-23 11:33N 49°11' W 122°55'6 6.2
2015-May-23 10:33N 49°08' W 123°03'6 6.4
2015-May-23 09:34N 49°08' W 123°13'8 7.7
2015-May-23 08:34N 49°07' W 123°25'10 9.8
2015-May-23 07:33N 49°11' W 123°39'9 9.2
2015-May-23 06:33N 49°12' W 123°53'3 1.2
2015-May-23 04:15N 49°09' W 123°52'4 6.0
2015-May-23 03:34N 49°12' W 123°49'1010.3
2015-May-23 02:34N 49°09' W 123°34'1010.2
2015-May-23 01:34N 49°06' W 123°19'1110.6
2015-May-23 00:34N 49°08' W 123°03'7 6.6
2015-May-22 23:34N 49°12' W 122°54'0 0.0
2015-May-22 22:34N 49°12' W 122°54'0 0.0
2015-May-22 21:34N 49°12' W 122°54'0 0.0
2015-May-22 20:33N 49°12' W 122°54'0 0.0
2015-May-22 19:34N 49°12' W 122°54'0 0.0
2015-May-22 18:33N 49°12' W 122°54'0 0.0
2015-May-22 17:34N 49°12' W 122°54'0 0.0
2015-May-22 16:33N 49°12' W 122°54'1 0.6
2015-May-22 15:34N 49°11' W 122°55'8 7.8
2015-May-22 14:34N 49°07' W 123°05'8 7.7
2015-May-22 13:34N 49°07' W 123°17'10 9.6
2015-May-22 12:33N 49°09' W 123°31'1010.3
2015-May-22 11:34N 49°12' W 123°46'6 5.4
2015-May-22 10:32N 49°09' W 123°52'0 0.2
2015-May-22 08:33N 49°09' W 123°52'7 6.9
2015-May-22 07:33N 49°11' W 123°42'10 9.8
2015-May-22 06:34N 49°08' W 123°28'9 9.4
2015-May-22 05:34N 49°08' W 123°13'9 8.8
2015-May-22 04:34N 49°09' W 123°00'4 4.4
2015-May-22 03:34N 49°12' W 122°54'0 0.0
2015-May-22 02:34N 49°12' W 122°54'0 0.1
2015-May-22 01:34N 49°12' W 122°54'0 0.0
2015-May-22 00:33N 49°12' W 122°54'0 0.0
2015-May-21 23:34N 49°12' W 122°54'0 0.0
2015-May-21 22:34N 49°12' W 122°54'0 0.0
2015-May-21 21:34N 49°12' W 122°54'0 0.0
2015-May-21 20:34N 49°12' W 122°54'0 0.0
2015-May-21 19:34N 49°12' W 122°54'0 0.0
2015-May-21 18:34N 49°12' W 122°54'0 0.0
2015-May-21 17:34N 49°12' W 122°54'0 0.0
2015-May-21 16:33N 49°12' W 122°54'0 0.0
2015-May-21 15:34N 49°12' W 122°54'0 0.0
2015-May-21 14:34N 49°12' W 122°54'0 0.0
2015-May-21 13:34N 49°12' W 122°54'0 0.1
2015-May-21 12:34N 49°12' W 122°54'3 3.4
2015-May-21 11:34N 49°09' W 122°58'8 7.8
2015-May-21 10:34N 49°07' W 123°09'7 7.0
2015-May-21 09:34N 49°06' W 123°20'1010.0
2015-May-21 08:34N 49°10' W 123°34'1010.4
2015-May-21 07:33N 49°13' W 123°49'5 4.6
2015-May-21 06:34N 49°09' W 123°52'0 0.0
2015-May-21 05:33N 49°09' W 123°52'1 1.3
2015-May-21 04:33N 49°10' W 123°53'8 8.0
2015-May-21 03:34N 49°12' W 123°41'1010.0
2015-May-21 02:34N 49°09' W 123°27'9 8.8
2015-May-21 01:34N 49°08' W 123°13'10 9.8
2015-May-21 00:34N 49°09' W 122°58'3 3.4
2015-May-20 23:33N 49°12' W 122°54'0 0.0
2015-May-20 22:33N 49°12' W 122°54'0 0.0
2015-May-20 21:33N 49°12' W 122°54'0 0.0
2015-May-20 20:33N 49°12' W 122°54'0 0.0
2015-May-20 19:33N 49°12' W 122°54'0 0.0
2015-May-20 18:33N 49°12' W 122°54'0 0.0
2015-May-20 17:33N 49°12' W 122°54'0 0.0
2015-May-20 16:33N 49°12' W 122°54'0 0.0
2015-May-20 15:30N 49°12' W 122°54'6 6.1
2015-May-20 14:33N 49°09' W 123°02'8 7.8
2015-May-20 13:33N 49°08' W 123°14'8 8.4
2015-May-20 12:33N 49°08' W 123°27'1010.1
2015-May-20 11:33N 49°11' W 123°41'8 7.5
2015-May-20 10:32N 49°10' W 123°53'1 0.6
2015-May-20 08:33N 49°09' W 123°52'7 6.6
2015-May-20 07:33N 49°13' W 123°44'10 9.9
2015-May-20 06:33N 49°09' W 123°30'10 9.7
2015-May-20 05:33N 49°07' W 123°15'1010.0
2015-May-20 04:33N 49°09' W 123°00'5 4.4
2015-May-20 03:32N 49°12' W 122°54'0 0.0
2015-May-20 02:31N 49°12' W 122°54'0 0.0
2015-May-20 01:31N 49°12' W 122°54'0 0.0
2015-May-20 00:10N 49°12' W 122°54'0 0.0
2015-May-19 23:28N 49°12' W 122°54'0 0.0
2015-May-19 19:19N 49°12' W 122°54'0 0.0
2015-May-19 18:31N 49°12' W 122°54'0 0.0
2015-May-19 17:28N 49°12' W 122°54'0 0.0
2015-May-19 16:16N 49°12' W 122°54'0 0.0
2015-May-19 15:28N 49°12' W 122°54'0 0.0
2015-May-19 14:31N 49°12' W 122°54'  
Track history (hours):
 
Tides and Currents Weather Stations Pressure Air Temp Water Temp Dewpoint Dewpoint Depression Visibility Wind Speed Wind Dir Waves Ship Positions

Arctic Taglu

Last reported at 2015-May-28 07:33 UTC. Time now 2015-May-28 08:06 UTC.
Position N 49°03' W 123°22'.

Length 33 m; draft 6 m.

Type: Tug. MMSI: 316003483.

Date/timePositionNaut miles runAvg speedWind from/ knotsBaromVisibWave heightAir tempDewpointWater temp
2015-May-28 07:33N 49°03' W 123°22'9 9.3
2015-May-28 06:33N 49°07' W 123°09'5 5.0
2015-May-28 05:33N 49°09' W 123°02'0 0.0
2015-May-28 04:33N 49°09' W 123°02'0 0.0
2015-May-28 03:33N 49°09' W 123°02'0 0.0
2015-May-28 02:33N 49°09' W 123°02'0 0.0
2015-May-28 01:33N 49°09' W 123°02'0 0.0
2015-May-28 00:33N 49°09' W 123°02'0 0.0
2015-May-27 23:33N 49°09' W 123°02'0 0.0
2015-May-27 22:33N 49°09' W 123°02'0 0.0
2015-May-27 21:33N 49°09' W 123°02'0 0.0
2015-May-27 20:33N 49°09' W 123°02'0 0.0
2015-May-27 19:33N 49°09' W 123°02'0 0.0
2015-May-27 18:33N 49°09' W 123°02'0 0.0
2015-May-27 17:33N 49°09' W 123°02'0 0.0
2015-May-27 16:33N 49°09' W 123°02'5 5.2
2015-May-27 15:33N 49°07' W 123°09'6 6.1
2015-May-27 14:33N 49°06' W 123°19'9 8.9
2015-May-27 13:33N 48°57' W 123°19'7 7.3
2015-May-27 12:33N 48°50' W 123°21'9 8.8
2015-May-27 11:33N 48°41' W 123°24'0 0.1
2015-May-27 10:33N 48°41' W 123°24'3 3.1
2015-May-27 09:33N 48°43' W 123°21'9 9.2
2015-May-27 08:33N 48°52' W 123°18'1010.1
2015-May-27 07:33N 49°02' W 123°20'8 7.8
2015-May-27 06:33N 49°07' W 123°10'5 5.3
2015-May-27 05:33N 49°09' W 123°02'0 0.0
2015-May-27 04:33N 49°09' W 123°02'0 0.1
2015-May-27 03:33N 49°09' W 123°02'0 0.0
2015-May-27 02:33N 49°09' W 123°02'0 0.0
2015-May-27 01:33N 49°09' W 123°02'0 0.0
2015-May-27 00:33N 49°09' W 123°02'0 0.0
2015-May-26 23:33N 49°09' W 123°02'0 0.0
2015-May-26 22:33N 49°09' W 123°02'0 0.0
2015-May-26 21:33N 49°09' W 123°02'0 0.0
2015-May-26 20:33N 49°09' W 123°02'0 0.0
2015-May-26 19:33N 49°09' W 123°02'0 0.0
2015-May-26 18:33N 49°09' W 123°02'0 0.0
2015-May-26 17:33N 49°09' W 123°02'0 0.0
2015-May-26 16:33N 49°09' W 123°02'4 4.2
2015-May-26 15:33N 49°07' W 123°08'7 6.6
2015-May-26 14:33N 49°06' W 123°18'8 8.5
2015-May-26 13:33N 48°58' W 123°20'8 7.7
2015-May-26 12:33N 48°50' W 123°21'9 9.2
2015-May-26 11:33N 48°41' W 123°24'0 0.1
2015-May-26 10:33N 48°41' W 123°24'3 3.3
2015-May-26 09:33N 48°44' W 123°21'10 9.6
2015-May-26 08:33N 48°53' W 123°18'1010.1
2015-May-26 07:33N 49°03' W 123°22'9 8.9
2015-May-26 06:33N 49°07' W 123°10'5 5.2
2015-May-26 05:33N 49°09' W 123°02'0 0.0
2015-May-26 04:33N 49°09' W 123°02'1 0.7
2015-May-26 03:33N 49°09' W 123°01'5 5.3
2015-May-26 02:33N 49°12' W 122°54'0 0.0
2015-May-26 01:33N 49°12' W 122°54'0 0.0
2015-May-26 00:33N 49°12' W 122°54'  
2015-May-23 13:32N 49°12' W 122°54'0 0.1
2015-May-23 12:34N 49°12' W 122°54'1 0.6
2015-May-23 11:33N 49°11' W 122°55'6 6.2
2015-May-23 10:33N 49°08' W 123°03'6 6.4
2015-May-23 09:34N 49°08' W 123°13'8 7.7
2015-May-23 08:34N 49°07' W 123°25'10 9.8
2015-May-23 07:33N 49°11' W 123°39'9 9.2
2015-May-23 06:33N 49°12' W 123°53'3 1.2
2015-May-23 04:15N 49°09' W 123°52'4 6.0
2015-May-23 03:34N 49°12' W 123°49'1010.3
2015-May-23 02:34N 49°09' W 123°34'1010.2
2015-May-23 01:34N 49°06' W 123°19'1110.6
2015-May-23 00:34N 49°08' W 123°03'7 6.6
2015-May-22 23:34N 49°12' W 122°54'0 0.0
2015-May-22 22:34N 49°12' W 122°54'0 0.0
2015-May-22 21:34N 49°12' W 122°54'0 0.0
2015-May-22 20:33N 49°12' W 122°54'0 0.0
2015-May-22 19:34N 49°12' W 122°54'0 0.0
2015-May-22 18:33N 49°12' W 122°54'0 0.0
2015-May-22 17:34N 49°12' W 122°54'0 0.0
2015-May-22 16:33N 49°12' W 122°54'1 0.6
2015-May-22 15:34N 49°11' W 122°55'8 7.8
2015-May-22 14:34N 49°07' W 123°05'8 7.7
2015-May-22 13:34N 49°07' W 123°17'10 9.6
2015-May-22 12:33N 49°09' W 123°31'1010.3
2015-May-22 11:34N 49°12' W 123°46'6 5.4
2015-May-22 10:32N 49°09' W 123°52'0 0.2
2015-May-22 08:33N 49°09' W 123°52'7 6.9
2015-May-22 07:33N 49°11' W 123°42'10 9.8
2015-May-22 06:34N 49°08' W 123°28'9 9.4
2015-May-22 05:34N 49°08' W 123°13'9 8.8
2015-May-22 04:34N 49°09' W 123°00'4 4.4
2015-May-22 03:34N 49°12' W 122°54'0 0.0
2015-May-22 02:34N 49°12' W 122°54'0 0.1
2015-May-22 01:34N 49°12' W 122°54'0 0.0
2015-May-22 00:33N 49°12' W 122°54'0 0.0
2015-May-21 23:34N 49°12' W 122°54'0 0.0
2015-May-21 22:34N 49°12' W 122°54'0 0.0
2015-May-21 21:34N 49°12' W 122°54'0 0.0
2015-May-21 20:34N 49°12' W 122°54'0 0.0
2015-May-21 19:34N 49°12' W 122°54'0 0.0
2015-May-21 18:34N 49°12' W 122°54'0 0.0
2015-May-21 17:34N 49°12' W 122°54'0 0.0
2015-May-21 16:33N 49°12' W 122°54'0 0.0
2015-May-21 15:34N 49°12' W 122°54'0 0.0
2015-May-21 14:34N 49°12' W 122°54'0 0.0
2015-May-21 13:34N 49°12' W 122°54'0 0.1
2015-May-21 12:34N 49°12' W 122°54'3 3.4
2015-May-21 11:34N 49°09' W 122°58'8 7.8
2015-May-21 10:34N 49°07' W 123°09'7 7.0
2015-May-21 09:34N 49°06' W 123°20'1010.0
2015-May-21 08:34N 49°10' W 123°34'1010.4
2015-May-21 07:33N 49°13' W 123°49'5 4.6
2015-May-21 06:34N 49°09' W 123°52'0 0.0
2015-May-21 05:33N 49°09' W 123°52'1 1.3
2015-May-21 04:33N 49°10' W 123°53'8 8.0
2015-May-21 03:34N 49°12' W 123°41'1010.0
2015-May-21 02:34N 49°09' W 123°27'9 8.8
2015-May-21 01:34N 49°08' W 123°13'10 9.8
2015-May-21 00:34N 49°09' W 122°58'3 3.4
2015-May-20 23:33N 49°12' W 122°54'0 0.0
2015-May-20 22:33N 49°12' W 122°54'0 0.0
2015-May-20 21:33N 49°12' W 122°54'0 0.0
2015-May-20 20:33N 49°12' W 122°54'0 0.0
2015-May-20 19:33N 49°12' W 122°54'0 0.0
2015-May-20 18:33N 49°12' W 122°54'0 0.0
2015-May-20 17:33N 49°12' W 122°54'0 0.0
2015-May-20 16:33N 49°12' W 122°54'0 0.0
2015-May-20 15:30N 49°12' W 122°54'6 6.1
2015-May-20 14:33N 49°09' W 123°02'8 7.8
2015-May-20 13:33N 49°08' W 123°14'8 8.4
2015-May-20 12:33N 49°08' W 123°27'1010.1
2015-May-20 11:33N 49°11' W 123°41'8 7.5
2015-May-20 10:32N 49°10' W 123°53'1 0.6
2015-May-20 08:33N 49°09' W 123°52'7 6.6
2015-May-20 07:33N 49°13' W 123°44'10 9.9
2015-May-20 06:33N 49°09' W 123°30'10 9.7
2015-May-20 05:33N 49°07' W 123°15'1010.0
2015-May-20 04:33N 49°09' W 123°00'5 4.4
2015-May-20 03:32N 49°12' W 122°54'0 0.0
2015-May-20 02:31N 49°12' W 122°54'0 0.0
2015-May-20 01:31N 49°12' W 122°54'0 0.0
2015-May-20 00:10N 49°12' W 122°54'0 0.0
2015-May-19 23:28N 49°12' W 122°54'0 0.0
2015-May-19 19:19N 49°12' W 122°54'0 0.0
2015-May-19 18:31N 49°12' W 122°54'0 0.0
2015-May-19 17:28N 49°12' W 122°54'0 0.0
2015-May-19 16:16N 49°12' W 122°54'0 0.0
2015-May-19 15:28N 49°12' W 122°54'0 0.0
2015-May-19 14:31N 49°12' W 122°54'  

Dump ship's entire track history